createdAt,value
2022-09-22T00:01:40.418Z,9.99
2022-09-22T00:04:13.451Z,9.94
2022-09-22T00:06:48.273Z,9.90
2022-09-22T00:09:20.871Z,9.85
2022-09-22T00:11:52.236Z,9.81
2022-09-22T00:14:25.159Z,9.76
2022-09-22T00:16:58.714Z,9.70
2022-09-22T00:19:31.031Z,9.65
2022-09-22T00:22:00.455Z,9.61
2022-09-22T00:24:31.340Z,9.56
2022-09-22T00:27:00.784Z,9.52
2022-09-22T00:29:30.855Z,9.48
2022-09-22T00:32:03.574Z,9.43
2022-09-22T00:34:34.744Z,9.41
2022-09-22T00:37:03.132Z,9.38
2022-09-22T00:39:32.036Z,9.37
2022-09-22T00:42:00.512Z,9.37
2022-09-22T00:44:58.329Z,9.37
2022-09-22T00:47:43.844Z,9.38
2022-09-22T00:50:22.264Z,9.39
2022-09-22T00:53:06.102Z,9.39
2022-09-22T00:55:47.275Z,9.38
2022-09-22T00:58:20.859Z,9.39
2022-09-22T01:00:49.737Z,9.39
2022-09-22T01:03:26.286Z,9.39
2022-09-22T01:06:03.000Z,9.39
2022-09-22T01:08:33.906Z,9.37
2022-09-22T01:11:02.345Z,9.35
2022-09-22T01:13:42.869Z,9.33
2022-09-22T01:16:56.229Z,9.32
2022-09-22T01:20:09.279Z,9.27
2022-09-22T01:23:11.840Z,9.22
2022-09-22T01:26:01.400Z,9.17
2022-09-22T01:28:48.115Z,9.12
2022-09-22T01:31:27.827Z,9.10
2022-09-22T01:34:27.235Z,9.07
2022-09-22T01:37:24.774Z,9.06
2022-09-22T01:40:07.309Z,9.05
2022-09-22T01:42:47.153Z,9.04
2022-09-22T01:45:21.791Z,9.04
2022-09-22T01:48:03.390Z,9.04
2022-09-22T01:50:42.769Z,9.04
2022-09-22T01:53:16.449Z,9.03
2022-09-22T01:55:53.180Z,9.04
2022-09-22T01:58:46.143Z,9.03
2022-09-22T02:01:19.424Z,9.01
2022-09-22T02:04:01.808Z,8.98
2022-09-22T02:06:47.383Z,8.93
2022-09-22T02:09:23.971Z,8.88
2022-09-22T02:11:52.430Z,8.83
2022-09-22T02:14:20.825Z,8.78
2022-09-22T02:16:49.154Z,8.73
2022-09-22T02:19:20.323Z,8.68
2022-09-22T02:21:49.450Z,8.64
2022-09-22T02:24:31.605Z,8.60
2022-09-22T02:27:36.534Z,8.54
2022-09-22T02:30:09.433Z,8.49
2022-09-22T02:32:42.636Z,8.45
2022-09-22T02:35:11.772Z,8.41
2022-09-22T02:37:57.120Z,8.38
2022-09-22T02:41:04.079Z,8.34
2022-09-22T02:43:40.599Z,8.29
2022-09-22T02:46:30.632Z,8.26
2022-09-22T02:49:09.623Z,8.22
2022-09-22T02:51:38.191Z,8.17
2022-09-22T02:54:06.734Z,8.11
2022-09-22T02:56:35.744Z,8.07
2022-09-22T02:59:04.254Z,8.02
2022-09-22T03:01:32.611Z,7.98
2022-09-22T03:04:01.174Z,7.93
2022-09-22T03:06:29.535Z,7.88
2022-09-22T03:08:57.886Z,7.85
2022-09-22T03:11:27.229Z,7.83
2022-09-22T03:13:55.523Z,7.79
2022-09-22T03:16:23.919Z,7.76
2022-09-22T03:18:52.199Z,7.72
2022-09-22T03:21:20.559Z,7.70
2022-09-22T03:23:49.390Z,7.65
2022-09-22T03:26:17.679Z,7.61
2022-09-22T03:28:46.175Z,7.57
2022-09-22T03:31:14.560Z,7.53
2022-09-22T03:33:42.915Z,7.50
2022-09-22T03:36:11.375Z,7.47
2022-09-22T03:38:40.138Z,7.44
2022-09-22T03:41:08.531Z,7.42
2022-09-22T03:43:36.805Z,7.39
2022-09-22T03:46:05.182Z,7.36
2022-09-22T03:48:33.534Z,7.32
2022-09-22T03:51:01.870Z,7.28
2022-09-22T03:53:30.275Z,7.24
2022-09-22T03:56:14.487Z,7.21
2022-09-22T03:58:43.531Z,7.18
2022-09-22T04:01:12.304Z,7.15
2022-09-22T04:03:41.088Z,7.13
2022-09-22T04:06:09.913Z,7.10
2022-09-22T04:08:38.696Z,7.08
2022-09-22T04:11:08.135Z,7.06
2022-09-22T04:13:36.738Z,7.03
2022-09-22T04:16:06.024Z,7.01
2022-09-22T04:18:38.905Z,6.98
2022-09-22T04:21:07.578Z,6.96
2022-09-22T04:23:36.721Z,6.93
2022-09-22T04:26:05.688Z,6.90
2022-09-22T04:28:33.966Z,6.86
2022-09-22T04:31:02.273Z,6.85
2022-09-22T04:33:30.624Z,6.83
2022-09-22T04:35:58.864Z,6.81
2022-09-22T04:38:27.172Z,6.79
2022-09-22T04:40:55.430Z,6.77
2022-09-22T04:43:23.882Z,6.75
2022-09-22T04:45:52.181Z,6.74
2022-09-22T04:48:20.532Z,6.75
2022-09-22T04:50:48.782Z,6.76
2022-09-22T04:53:17.249Z,6.76
2022-09-22T04:55:45.598Z,6.76
2022-09-22T04:58:14.105Z,6.76
2022-09-22T05:00:42.541Z,6.77
2022-09-22T05:03:13.272Z,6.78
2022-09-22T05:05:41.644Z,6.79
2022-09-22T05:08:10.396Z,6.80
2022-09-22T05:10:38.803Z,6.80
2022-09-22T05:13:07.926Z,6.80
2022-09-22T05:15:37.575Z,6.81
2022-09-22T05:18:06.377Z,6.81
2022-09-22T05:20:34.724Z,6.82
2022-09-22T05:23:03.003Z,6.83
2022-09-22T05:25:31.302Z,6.84
2022-09-22T05:28:00.311Z,6.87
2022-09-22T05:30:29.211Z,6.91
2022-09-22T05:32:57.480Z,6.95
2022-09-22T05:35:25.928Z,7.00
2022-09-22T05:37:54.480Z,7.03
2022-09-22T05:40:25.071Z,7.08
2022-09-22T05:42:54.473Z,7.14
2022-09-22T05:45:22.878Z,7.21
2022-09-22T05:47:51.766Z,7.27
2022-09-22T05:50:21.384Z,7.35
2022-09-22T05:52:50.338Z,7.43
2022-09-22T05:55:18.901Z,7.48
2022-09-22T05:57:47.167Z,7.54
2022-09-22T06:00:15.763Z,7.61
2022-09-22T06:02:45.237Z,7.68
2022-09-22T06:05:17.134Z,7.74
2022-09-22T06:07:49.045Z,7.81
2022-09-22T06:10:17.428Z,7.91
2022-09-22T06:12:45.730Z,7.99
2022-09-22T06:15:14.150Z,8.04
2022-09-22T06:17:42.535Z,8.07
2022-09-22T06:20:10.898Z,8.12
2022-09-22T06:22:39.170Z,8.15
2022-09-22T06:25:09.142Z,8.16
2022-09-22T06:27:37.726Z,8.20
2022-09-22T06:30:11.151Z,8.26
2022-09-22T06:32:39.855Z,8.31
2022-09-22T06:35:08.728Z,8.36
2022-09-22T06:37:38.610Z,8.42
2022-09-22T06:40:08.676Z,8.48
2022-09-22T06:42:38.409Z,8.53
2022-09-22T06:45:08.539Z,8.59
2022-09-22T06:47:36.759Z,8.70
2022-09-22T06:50:06.126Z,8.81
2022-09-22T06:52:37.402Z,8.91
2022-09-22T06:55:07.763Z,8.97
2022-09-22T06:57:36.133Z,9.03
2022-09-22T07:00:05.078Z,9.10
2022-09-22T07:02:33.415Z,9.16
2022-09-22T07:05:02.278Z,9.21
2022-09-22T07:07:32.271Z,9.30
2022-09-22T07:10:00.544Z,9.41
2022-09-22T07:12:28.986Z,9.51
2022-09-22T07:14:58.132Z,9.59
2022-09-22T07:17:31.862Z,9.66
2022-09-22T07:20:01.133Z,9.76
2022-09-22T07:22:29.478Z,9.89
2022-09-22T07:24:57.731Z,10.01
2022-09-22T07:27:26.265Z,10.11
2022-09-22T07:29:54.524Z,10.21
2022-09-22T07:32:22.885Z,10.33
2022-09-22T07:34:52.730Z,10.44
2022-09-22T07:37:21.005Z,10.54
2022-09-22T07:39:49.283Z,10.61
2022-09-22T07:42:19.090Z,10.68
2022-09-22T07:45:06.057Z,10.74
2022-09-22T07:47:53.380Z,10.78
2022-09-22T07:50:22.767Z,10.86
2022-09-22T07:52:53.421Z,10.97
2022-09-22T07:55:24.218Z,11.12
2022-09-22T07:58:00.596Z,11.25
2022-09-22T08:00:32.943Z,11.36
2022-09-22T08:03:01.598Z,11.43
2022-09-22T08:05:29.921Z,11.49
2022-09-22T08:07:58.517Z,11.58
2022-09-22T08:10:27.001Z,11.66
2022-09-22T08:12:56.890Z,11.70
2022-09-22T08:15:27.279Z,11.73
2022-09-22T08:17:58.293Z,11.78
2022-09-22T08:20:29.139Z,11.80
2022-09-22T08:23:05.025Z,11.84
2022-09-22T08:25:34.369Z,11.89
2022-09-22T08:28:02.990Z,11.92
2022-09-22T08:30:31.273Z,11.97
2022-09-22T08:33:01.456Z,12.01
2022-09-22T08:35:30.508Z,12.08
2022-09-22T08:37:58.777Z,12.15
2022-09-22T08:40:29.489Z,12.19
2022-09-22T08:43:00.290Z,12.23
2022-09-22T08:45:36.801Z,12.33
2022-09-22T08:48:38.706Z,12.47
2022-09-22T08:51:49.390Z,12.58
2022-09-22T08:54:20.395Z,12.75
2022-09-22T08:57:41.373Z,12.82
2022-09-22T09:00:16.735Z,13.00
2022-09-22T09:03:02.584Z,13.21
2022-09-22T09:05:46.247Z,13.49
2022-09-22T09:08:48.807Z,13.76
2022-09-22T09:11:49.014Z,14.09
2022-09-22T09:14:23.829Z,14.33
2022-09-22T09:17:09.093Z,14.42
2022-09-22T09:19:43.977Z,14.55
2022-09-22T09:22:32.146Z,14.89
2022-09-22T09:25:39.665Z,15.33
2022-09-22T09:28:18.015Z,15.75
2022-09-22T09:30:58.935Z,16.07
2022-09-22T09:33:43.805Z,16.41
2022-09-22T09:36:20.630Z,16.80
2022-09-22T09:38:58.355Z,17.05
2022-09-22T09:41:32.784Z,17.30
2022-09-22T09:44:02.757Z,17.48
2022-09-22T09:47:22.063Z,17.60
2022-09-22T09:49:52.662Z,17.82
2022-09-22T09:52:25.830Z,18.09
2022-09-22T09:54:54.734Z,18.39
2022-09-22T09:57:27.689Z,18.67
2022-09-22T10:00:32.141Z,18.88
2022-09-22T10:03:24.964Z,19.19
2022-09-22T10:06:00.315Z,19.61
2022-09-22T10:08:34.868Z,19.93
2022-09-22T10:11:04.393Z,20.05
2022-09-22T10:13:36.605Z,20.22
2022-09-22T10:16:26.745Z,20.54
2022-09-22T10:19:20.728Z,20.72
2022-09-22T10:21:49.842Z,20.36
2022-09-22T10:24:32.471Z,20.25
2022-09-22T10:27:03.814Z,20.29
2022-09-22T10:29:36.324Z,20.38
2022-09-22T10:32:16.982Z,20.59
2022-09-22T10:34:50.569Z,21.05
2022-09-22T10:37:28.755Z,21.46
2022-09-22T10:40:03.435Z,21.26
2022-09-22T10:42:46.113Z,20.79
2022-09-22T10:45:19.283Z,20.18
2022-09-22T10:47:59.068Z,19.83
2022-09-22T10:50:43.626Z,19.88
2022-09-22T10:54:18.761Z,20.10
2022-09-22T10:56:53.517Z,20.64
2022-09-22T11:00:02.874Z,20.66
2022-09-22T11:02:49.545Z,20.39
2022-09-22T11:05:44.369Z,20.39
2022-09-22T11:08:34.614Z,20.65
2022-09-22T11:11:32.655Z,20.97
2022-09-22T11:14:25.293Z,20.82
2022-09-22T11:17:17.638Z,20.88
2022-09-22T11:20:13.230Z,21.41
2022-09-22T11:22:44.207Z,21.91
2022-09-22T11:25:45.635Z,21.99
2022-09-22T11:28:28.343Z,21.94
2022-09-22T11:30:59.186Z,21.97
2022-09-22T11:34:16.474Z,22.25
2022-09-22T11:37:34.266Z,22.54
2022-09-22T11:40:27.288Z,22.76
2022-09-22T11:43:18.722Z,23.04
2022-09-22T11:46:22.335Z,23.15
2022-09-22T11:49:11.086Z,23.16
2022-09-22T11:52:07.642Z,22.95
2022-09-22T11:55:00.417Z,22.59
2022-09-22T11:57:40.729Z,22.39
2022-09-22T12:00:17.619Z,22.79
2022-09-22T12:03:01.839Z,23.29
2022-09-22T12:06:01.304Z,23.79
2022-09-22T12:08:38.121Z,23.75
2022-09-22T12:11:10.822Z,23.64
2022-09-22T12:13:46.674Z,23.68
2022-09-22T12:16:42.711Z,23.49
2022-09-22T12:19:57.267Z,23.13
2022-09-22T12:23:08.764Z,22.52
2022-09-22T12:25:54.613Z,22.04
2022-09-22T12:28:31.583Z,22.13
2022-09-22T12:31:10.413Z,22.53
2022-09-22T12:33:47.575Z,23.00
2022-09-22T12:36:18.662Z,23.43
2022-09-22T12:38:47.226Z,23.66
2022-09-22T12:41:18.986Z,23.54
2022-09-22T12:43:48.795Z,23.16
2022-09-22T12:46:27.964Z,23.21
2022-09-22T12:48:56.477Z,23.56
2022-09-22T12:51:24.748Z,23.76
2022-09-22T12:54:22.570Z,23.93
2022-09-22T12:57:08.803Z,24.35
2022-09-22T12:59:37.491Z,24.77
2022-09-22T13:02:11.719Z,25.13
2022-09-22T13:04:40.443Z,25.39
2022-09-22T13:07:44.538Z,25.61
2022-09-22T13:10:25.047Z,25.99
2022-09-22T13:13:02.691Z,26.31
2022-09-22T13:16:03.162Z,26.56
2022-09-22T13:18:40.315Z,26.59
2022-09-22T13:21:14.765Z,26.60
2022-09-22T13:23:52.914Z,26.52
2022-09-22T13:26:24.204Z,26.51
2022-09-22T13:29:00.613Z,26.53
2022-09-22T13:31:35.310Z,26.58
2022-09-22T13:34:35.508Z,26.67
2022-09-22T13:37:23.431Z,26.75
2022-09-22T13:39:53.926Z,26.83
2022-09-22T13:42:31.335Z,27.01
2022-09-22T13:45:26.311Z,27.10
2022-09-22T13:48:06.076Z,27.12
2022-09-22T13:51:11.548Z,27.26
2022-09-22T13:53:45.113Z,27.57
2022-09-22T13:56:21.778Z,27.96
2022-09-22T13:58:55.415Z,28.00
2022-09-22T14:01:26.814Z,27.98
2022-09-22T14:03:56.352Z,28.20
2022-09-22T14:06:28.584Z,28.24
2022-09-22T14:08:58.155Z,28.21
2022-09-22T14:11:33.401Z,28.26
2022-09-22T14:14:03.013Z,28.58
2022-09-22T14:16:34.434Z,29.00
2022-09-22T14:19:24.108Z,29.09
2022-09-22T14:21:57.949Z,29.18
2022-09-22T14:24:28.003Z,29.35
2022-09-22T14:27:22.716Z,29.37
2022-09-22T14:29:53.685Z,29.52
2022-09-22T14:32:36.181Z,29.50
2022-09-22T14:35:09.202Z,29.29
2022-09-22T14:37:43.394Z,29.32
2022-09-22T14:40:18.886Z,29.50
2022-09-22T14:43:20.951Z,29.77
2022-09-22T14:46:19.771Z,30.20
2022-09-22T14:48:48.095Z,30.50
2022-09-22T14:51:21.970Z,30.78
2022-09-22T14:53:58.700Z,31.17
2022-09-22T14:56:34.217Z,31.35
2022-09-22T14:59:26.865Z,31.48
2022-09-22T15:02:15.570Z,31.74
2022-09-22T15:04:51.687Z,32.01
2022-09-22T15:07:48.154Z,32.22
2022-09-22T15:10:31.783Z,32.43
2022-09-22T15:13:30.283Z,32.81
2022-09-22T15:15:58.884Z,33.25
2022-09-22T15:18:30.500Z,33.51
2022-09-22T15:21:11.916Z,33.47
2022-09-22T15:23:45.369Z,32.59
2022-09-22T15:26:25.667Z,32.28
2022-09-22T15:29:01.753Z,32.36
2022-09-22T15:31:31.248Z,32.08
2022-09-22T15:34:03.167Z,32.28
2022-09-22T15:36:33.321Z,32.50
2022-09-22T15:39:20.537Z,32.68
2022-09-22T15:41:51.167Z,32.68
2022-09-22T15:44:19.824Z,32.99
2022-09-22T15:46:52.588Z,33.44
2022-09-22T15:49:26.189Z,33.81
2022-09-22T15:51:56.595Z,34.13
2022-09-22T15:54:26.368Z,34.26
2022-09-22T15:56:56.964Z,34.33
2022-09-22T15:59:32.300Z,34.49
2022-09-22T16:02:01.799Z,34.48
2022-09-22T16:04:32.398Z,34.39
2022-09-22T16:07:08.511Z,34.21
2022-09-22T16:09:37.180Z,33.98
2022-09-22T16:12:11.053Z,33.75
2022-09-22T16:14:41.392Z,33.26
2022-09-22T16:17:09.723Z,32.37
2022-09-22T16:19:38.443Z,31.26
2022-09-22T16:22:06.739Z,30.19
2022-09-22T16:24:35.012Z,29.13
2022-09-22T16:27:07.396Z,28.11
2022-09-22T16:29:37.505Z,27.10
2022-09-22T16:32:06.884Z,26.15
2022-09-22T16:34:36.006Z,25.27
2022-09-22T16:37:04.423Z,24.42
2022-09-22T16:39:32.761Z,23.68
2022-09-22T16:42:01.061Z,22.99
2022-09-22T16:44:29.403Z,22.34
2022-09-22T16:46:59.129Z,21.69
2022-09-22T16:49:28.259Z,21.06
2022-09-22T16:51:56.550Z,20.43
2022-09-22T16:54:25.240Z,19.87
2022-09-22T16:56:56.377Z,19.41
2022-09-22T16:59:24.722Z,18.97
2022-09-22T17:01:53.462Z,18.58
2022-09-22T17:04:21.839Z,18.19
2022-09-22T17:06:50.627Z,17.82
2022-09-22T17:09:19.113Z,17.49
2022-09-22T17:11:49.285Z,17.12
2022-09-22T17:14:24.369Z,16.81
2022-09-22T17:16:54.234Z,16.50
2022-09-22T17:19:26.882Z,16.22
2022-09-22T17:21:56.955Z,15.96
2022-09-22T17:24:27.162Z,15.69
2022-09-22T17:26:58.978Z,15.46
2022-09-22T17:29:32.677Z,15.23
2022-09-22T17:32:08.144Z,15.05
2022-09-22T17:34:38.390Z,14.87
2022-09-22T17:37:07.148Z,14.70
2022-09-22T17:39:36.128Z,14.52
2022-09-22T17:42:04.698Z,14.32
2022-09-22T17:44:35.763Z,14.12
2022-09-22T17:47:23.054Z,13.93
2022-09-22T17:50:10.323Z,13.73
2022-09-22T17:52:57.481Z,13.58
2022-09-22T17:55:25.927Z,13.43
2022-09-22T17:57:56.518Z,13.30
2022-09-22T18:00:25.323Z,13.17
2022-09-22T18:02:54.369Z,13.06
2022-09-22T18:05:26.959Z,12.95
2022-09-22T18:07:58.614Z,12.83
2022-09-22T18:10:32.495Z,12.70
2022-09-22T18:13:02.441Z,12.59
2022-09-22T18:15:31.813Z,12.48
2022-09-22T18:18:00.263Z,12.36
2022-09-22T18:20:29.785Z,12.26
2022-09-22T18:23:00.391Z,12.17
2022-09-22T18:25:28.929Z,12.06
2022-09-22T18:27:58.122Z,11.94
2022-09-22T18:30:26.603Z,11.84
2022-09-22T18:32:55.176Z,11.75
2022-09-22T18:35:24.788Z,11.65
2022-09-22T18:37:53.152Z,11.55
2022-09-22T18:40:21.568Z,11.45
2022-09-22T18:42:50.233Z,11.38
2022-09-22T18:45:19.594Z,11.30
2022-09-22T18:47:47.971Z,11.22
2022-09-22T18:50:16.455Z,11.15
2022-09-22T18:52:45.998Z,11.07
2022-09-22T18:55:17.374Z,11.01
2022-09-22T18:57:48.671Z,10.94
2022-09-22T19:00:20.980Z,10.87
2022-09-22T19:02:50.438Z,10.81
2022-09-22T19:05:19.254Z,10.73
2022-09-22T19:07:48.388Z,10.64
2022-09-22T19:10:21.730Z,10.57
2022-09-22T19:12:50.234Z,10.48
2022-09-22T19:15:19.483Z,10.39
2022-09-22T19:17:49.867Z,10.31
2022-09-22T19:20:26.201Z,10.21
2022-09-22T19:22:54.488Z,10.09
2022-09-22T19:25:23.513Z,10.01
2022-09-22T19:27:53.256Z,9.92
2022-09-22T19:30:25.746Z,9.84
2022-09-22T19:32:56.916Z,9.74
2022-09-22T19:35:26.170Z,9.64
2022-09-22T19:37:55.210Z,9.57
2022-09-22T19:40:25.224Z,9.50
2022-09-22T19:42:55.283Z,9.42
2022-09-22T19:45:25.627Z,9.36
2022-09-22T19:47:58.569Z,9.30
2022-09-22T19:50:26.912Z,9.24
2022-09-22T19:52:55.494Z,9.20
2022-09-22T19:55:23.845Z,9.15
2022-09-22T19:57:52.368Z,9.09
2022-09-22T20:00:27.162Z,9.01
2022-09-22T20:03:00.759Z,8.94
2022-09-22T20:05:37.879Z,8.87
2022-09-22T20:08:15.963Z,8.82
2022-09-22T20:10:58.247Z,8.77
2022-09-22T20:13:53.178Z,8.71
2022-09-22T20:16:21.634Z,8.67
2022-09-22T20:18:50.007Z,8.63
2022-09-22T20:21:18.379Z,8.57
2022-09-22T20:23:46.702Z,8.52
2022-09-22T20:26:15.104Z,8.48
2022-09-22T20:28:43.502Z,8.42
2022-09-22T20:31:12.560Z,8.36
2022-09-22T20:33:41.435Z,8.31
2022-09-22T20:36:15.159Z,8.28
2022-09-22T20:38:43.637Z,8.24
2022-09-22T20:41:23.432Z,8.21
2022-09-22T20:43:51.991Z,8.15
2022-09-22T20:46:20.771Z,8.09
2022-09-22T20:48:49.258Z,8.06
2022-09-22T20:51:17.738Z,8.04
2022-09-22T20:53:47.138Z,8.01
2022-09-22T20:56:15.798Z,7.98
2022-09-22T20:58:46.312Z,7.95
2022-09-22T21:01:17.370Z,7.91
2022-09-22T21:03:45.861Z,7.87
2022-09-22T21:06:15.914Z,7.82
2022-09-22T21:09:03.444Z,7.78
2022-09-22T21:11:32.551Z,7.74
2022-09-22T21:14:04.078Z,7.73
2022-09-22T21:16:36.468Z,7.70
2022-09-22T21:19:04.863Z,7.64
2022-09-22T21:21:38.386Z,7.59
2022-09-22T21:24:09.759Z,7.52
2022-09-22T21:26:38.123Z,7.45
2022-09-22T21:29:06.576Z,7.40
2022-09-22T21:31:35.040Z,7.37
2022-09-22T21:34:04.687Z,7.34
2022-09-22T21:36:33.431Z,7.32
2022-09-22T21:39:01.882Z,7.28
2022-09-22T21:41:31.722Z,7.26
2022-09-22T21:44:00.272Z,7.24
2022-09-22T21:46:30.259Z,7.23
2022-09-22T21:49:04.283Z,7.21
2022-09-22T21:51:42.059Z,7.20
2022-09-22T21:54:15.145Z,7.16
2022-09-22T21:56:43.932Z,7.14
2022-09-22T21:59:13.661Z,7.12
2022-09-22T22:01:45.151Z,7.09
2022-09-22T22:04:15.158Z,7.06
2022-09-22T22:06:46.500Z,7.03
2022-09-22T22:09:21.340Z,7.01
2022-09-22T22:11:54.724Z,6.99
2022-09-22T22:14:27.223Z,6.97
2022-09-22T22:16:55.811Z,6.95
2022-09-22T22:19:27.057Z,6.91
2022-09-22T22:21:55.759Z,6.91
2022-09-22T22:24:28.807Z,6.90
2022-09-22T22:27:10.133Z,6.90
2022-09-22T22:29:40.096Z,6.87
2022-09-22T22:32:10.683Z,6.87
2022-09-22T22:34:39.115Z,6.86
2022-09-22T22:37:09.636Z,6.84
2022-09-22T22:39:38.631Z,6.81
2022-09-22T22:42:07.185Z,6.76
2022-09-22T22:44:35.583Z,6.72
2022-09-22T22:47:05.241Z,6.67
2022-09-22T22:49:33.947Z,6.65
2022-09-22T22:52:02.441Z,6.63
2022-09-22T22:54:30.726Z,6.61
2022-09-22T22:56:58.988Z,6.61
2022-09-22T22:59:27.708Z,6.62
2022-09-22T23:01:56.049Z,6.61
2022-09-22T23:04:25.321Z,6.59
2022-09-22T23:06:53.677Z,6.53
2022-09-22T23:09:21.959Z,6.48
2022-09-22T23:11:50.262Z,6.45
2022-09-22T23:14:18.721Z,6.42
2022-09-22T23:16:49.378Z,6.39
2022-09-22T23:19:18.371Z,6.38
2022-09-22T23:21:47.492Z,6.36
2022-09-22T23:24:19.130Z,6.32
2022-09-22T23:26:47.714Z,6.28
2022-09-22T23:29:16.080Z,6.22
2022-09-22T23:31:44.409Z,6.18
2022-09-22T23:34:12.930Z,6.16
2022-09-22T23:36:41.255Z,6.13
2022-09-22T23:39:12.300Z,6.12
2022-09-22T23:41:41.646Z,6.11
2022-09-22T23:44:12.008Z,6.09
2022-09-22T23:46:40.365Z,6.04
2022-09-22T23:49:08.734Z,6.00
2022-09-22T23:51:37.023Z,5.96
2022-09-22T23:54:05.851Z,5.92
2022-09-22T23:56:34.339Z,5.89
2022-09-22T23:59:02.698Z,5.86
